Tiempo atmosférico en la estación meteorológica de Gran Canaria Aeropuerto, Las Palmas (24 m.)

Fecha
DESCASC
Temp. máxima en grados centígrados (hora)
DESCASC
Temp. mínima en grados centígrados (hora)
DESCASC
Temp. media en grados centígrados
DESCASC
Racha de viento máxima en m/sg (hora)
DESCASC
Velocidad máxima media en intervalos de 10 minutos(hora)
DESCASC
Precipitaciones diarias en mm
DESCASC
Precipitaciones de 00:00 a 06:00 en mm
DESCASC
Precipitaciones de 06:00 a 12:00 en mm
DESCASC
Precipitaciones de 12:00 a 18:00 en mm
DESCASC
Precipitaciones de 18:00 a 24:00 en mm
DESCASC
23-11-2017 25.8 (14:40) 16.5 (02:50) 21.1 9.17 (14:40) 7.5 (15:00) 0 0 0 0 0
22-11-2017 26.3 (10:20) 17.5 (23:59) 21.9 10.83 (14:10) 8.06 (14:10) 0 0 0 0 0
21-11-2017 26.2 (14:20) 17.7 (06:30) 22 8.33 (14:20) 5.28 (13:50) 0 0 0 0 0
20-11-2017 25.4 (14:30) 17.4 (07:00) 21.4 8.89 (14:50) 4.72 (14:40) 0 0 0 0 0
19-11-2017 22.8 (13:20) 18.6 (00:00) 20.7 9.72 (17:20) 7.5 (17:20) 0 0 0 0 0
18-11-2017 22.7 (12:40) 19.5 (00:00) 21.1 8.33 (18:20) 5.83 (18:50) 0 0 0 0 0
17-11-2017 22.7 (13:50) 18 (00:00) 20.4 9.17 (17:00) 6.67 (16:40) 0 0 0 0 0
16-11-2017 22.7 (12:40) 16.9 (00:00) 19.8 9.17 (12:40) 6.67 (16:30) 0 0 0 0 0
15-11-2017 23.4 (12:30) 18.7 (00:00) 21.1 12.5 (13:50) 9.17 (12:40) 0 0 0 0 0
14-11-2017 23.4 (13:30) 19.3 (00:00) 21.3 13.33 (11:30) 10.56 (11:50) 0 0 0 0 0
13-11-2017 23.4 (13:10) 18.8 (00:00) 21.1 11.39 (11:50) 8.89 (16:00) 0 0 0 0 0
12-11-2017 25.5 (13:30) 19.4 (00:00) 22.4 7.78 (14:30) 4.17 (19:10) 0 0 0 0 0
11-11-2017 25.7 (15:20) 19.9 (00:00) 22.8 9.72 (10:10) 8.06 (10:40) 0 0 0 0 0
10-11-2017 24.1 (15:10) 19.7 (00:00) 21.9 12.5 (13:40) 9.44 (15:40) 0 0 0 0 0
09-11-2017 24.4 (12:40) 18.4 (00:00) 21.4 8.33 (12:30) 5.28 (09:50) 0 0 0 0 0
08-11-2017 26.8 (13:30) 18.1 (00:00) 22.4 10.28 (00:30) 6.67 (00:30) 0 0 0 0 0
07-11-2017 24.6 (13:30) 20.3 (00:00) 22.4 16.11 (15:00) 11.11 (12:30) 0 0 0 0 0
06-11-2017 24.3 (12:00) 20.1 (00:00) 22.2 12.78 (10:00) 10 (08:50) 0 0 0 0 0
05-11-2017 24.9 (13:30) 19.7 (00:00) 22.3 13.33 (13:10) 10.28 (12:40) 0.7 0.7 0 0 0
04-11-2017 24.1 (16:00) 19.8 (00:00) 21.9 10.83 (11:20) 8.61 (15:20) 0.9 0 0.9 0 0
03-11-2017 24.5 (11:50) 18.8 (00:00) 21.6 9.72 (17:30) 7.5 (17:20) 0 0 0 0 0
02-11-2017 24.4 (13:30) 19 (05:00) 21.7 10.28 (11:10) 7.78 (16:30) 0 0 0 0 0
01-11-2017 24.6 (14:10) 19.6 (00:00) 22.1 10.83 (12:00) 8.06 (11:10) 0 0 0 0 0
31-10-2017 24.2 (12:20) 18.5 (00:00) 21.4 10.28 (10:00) 7.78 (15:40) 0 0 0 0 0
30-10-2017 25 (13:10) 18.1 (00:00) 21.6 11.39 (12:30) 8.89 (12:30) 0 0 0 0 0
29-10-2017 25 (13:20) 20.2 (00:00) 22.6 11.39 (14:20) 9.72 (15:00) 0 0 0 0 0
28-10-2017 27.9 (12:20) 22.5 (00:00) 25.2 6.67 (21:00) 5 (19:30) 0 0 0 0 0
27-10-2017 28.5 (16:10) 23.2 (00:00) 25.9 6.11 (03:30) 3.61 (21:40) 0 0 0 0 0
26-10-2017 31.1 (17:40) 21.2 (00:00) 26.2 6.67 (13:10) 4.17 (14:40) 0 0 0 0 0

Gráficas

Temp. máximas Temp. mínimas Temp. medias Precipitaciones Rachas de viento máximas Velocidades máximas media en intervalos de 10 minutos

Datos horarios

Fecha y hora oficial Temperatura (ºC) Velocidad del viento (km/h) Dirección del viento Racha (km/h) Dirección de racha Precipitación (mm) Presión (hPa) Tendencia (hPa) Humedad (%)
2017-11-24 23:00:00 21.8 10 Sur 15 Sudoeste 0 1010.1 1.4 67
2017-11-24 22:00:00 22 10 Sur 15 Sur 0 1009.6 1.4 70
2017-11-24 21:00:00 22.6 9 Sur 18 Sur 0 1009.3 1.2 38
2017-11-24 20:00:00 23.5 10 Sudoeste 17 Sur 0 1008.7 0.8 33
2017-11-24 19:00:00 24.7 12 Sur 24 Sur 0 1008.2 0.5 26
2017-11-24 18:00:00 24.9 20 Sur 30 Sur 0 1008.1 0.5 27
2017-11-24 17:00:00 25.5 18 Sur 32 Sur 0 1007.9 -0.3 35
2017-11-24 16:00:00 26.3 22 Sur 33 Sur 0 1007.7 -1.2 26
2017-11-24 15:00:00 24.4 21 Sur 30 Sur 0 1007.6 -2.5 50
2017-11-24 14:00:00 23.7 17 Sur 28 Sur 0 1008.2 -2.8 57
2017-11-24 13:00:00 24 19 Sur 26 Sudeste 0 1008.9 -2.6 48
2017-11-24 12:00:00 23.1 15 Sur 26 Sudeste 0 1010.1 -0.8 61
2017-11-24 11:00:00 22.5 17 Sudeste 26 Sudeste 0 1011 0.3 75
2017-11-24 10:00:00 21.5 11 Sur 17 Sur 0 1011.5 1.4 79
2017-11-24 09:00:00 20.6 9 Sudoeste 11 Sudoeste 0 1010.9 0.7 81
2017-11-24 08:00:00 19.8 6 Sudoeste 9 Sudoeste 0 1010.7 0.5 80
2017-11-24 07:00:00 19.4 5 Oeste 11 Oeste 0 1010.1 -0.2 80
2017-11-24 06:00:00 19.1 8 Oeste -- -- 0 1010.2 0 80
2017-11-24 05:00:00 19.1 6 Oeste 9 Oeste 0 1010.2 -0.3 81
2017-11-24 04:00:00 19.2 7 Oeste -- -- 0 1010.3 -0.2 83
2017-11-24 03:00:00 19.2 7 Noroeste 13 Noroeste 0 1010.2 -0.4 81
2017-11-24 02:00:00 19.1 10 Noroeste 15 Noroeste 0 1010.5 -0.6 79
2017-11-24 01:00:00 18.2 8 Noroeste 11 Noroeste 0 1010.5 -0.6 73
2017-11-24 00:00:00 18.8 6 Oeste -- -- 0 1010.6 -0.4 74
2017-11-23 23:00:00 19.1 7 Oeste 9 Oeste 0 1011.1 0.4 70
2017-11-23 22:00:00 19.6 5 Oeste 9 Oeste 0 1011.1 1.2 72
2017-11-23 21:00:00 20.1 5 Oeste 15 Este 0 1011 1.7 73
2017-11-23 20:00:00 21.2 9 Este 15 Nordeste 0 1010.7 1.9 74
2017-11-23 19:00:00 21.9 6 Norte 17 Nordeste 0 1009.9 1.6 65
2017-11-23 18:00:00 23.4 4 Sudeste 15 Oeste 0 1009.3 1.3 53
2017-11-23 17:00:00 24.5 10 Sur 24 Sur 0 1008.8 0.7 56
2017-11-23 16:00:00 25.1 15 Sur 33 Sur 0 1008.3 -0.6 54
2017-11-23 15:00:00 25.3 27 Sur 33 Sur 0 1008 -1.5 55
2017-11-23 14:00:00 25.2 24 Sur 32 Sur 0 1008.1 -2 52
2017-11-23 13:00:00 25 22 Sur 30 Sur 0 1008.9 -1 52
2017-11-23 12:00:00 24.4 15 Sudeste 28 Este 0 1009.5 0.3 57
2017-11-23 11:00:00 23.4 7 Este 13 Este 0 1010.1 1.3 63
2017-11-23 10:00:00 23 5 Este 11 Este 0 1009.9 1.9 60
2017-11-23 09:00:00 21.6 0 Calma 8 Oeste 0 1009.2 1.2 49
2017-11-23 08:00:00 18.3 6 Sudoeste 9 Sudoeste 0 1008.8 0.6 31
2017-11-23 07:00:00 18.3 8 Oeste 13 Oeste 0 1008 -0.1 26
2017-11-23 06:00:00 18.5 11 Oeste 17 Oeste 0 1008 -0.2 26
2017-11-23 05:00:00 18.4 12 Oeste 15 Oeste 0 1008.2 -0.1 27
2017-11-23 04:00:00 16.6 6 Oeste 9 Oeste 0 1008.1 -0.4 48
2017-11-23 03:00:00 16.7 4 Oeste 9 Oeste 0 1008.2 -0.6 47
2017-11-23 02:00:00 16.9 8 Oeste -- -- 0 1008.3 -0.6 65
2017-11-23 01:00:00 17.3 6 Oeste -- -- 0 1008.5 -0.5 57
2017-11-23 00:00:00 17.5 5 Noroeste 8 Noroeste 0 1008.8 -0.1 58
2017-11-22 23:00:00 18.3 3 Noroeste 9 Oeste 0 1008.9 0.4 66
2017-11-22 22:00:00 18.4 5 Noroeste 8 Noroeste 0 1009 0.8 66
2017-11-22 21:00:00 19 5 Oeste 8 Oeste 0 1008.9 1.2 70
2017-11-22 20:00:00 19.7 0 Calma -- -- 0 1008.5 1.1 72
2017-11-22 19:00:00 20.5 -- -- -- -- 0 1008.2 0.8 70
2017-11-22 18:00:00 21.7 11 Sur 21 Sudeste 0 1007.7 0.5 67
2017-11-22 17:00:00 23.7 15 Sudeste 26 Sur 0 1007.4 -0.1 56
2017-11-22 16:00:00 24.4 21 Sur 37 Sur 0 1007.4 -0.8 50
2017-11-22 15:00:00 25.2 26 Sur 39 Sur 0 1007.2 -1.9 45
2017-11-22 14:00:00 25.1 26 Sur 33 Sur 0 1007.5 -2.1 54
2017-11-22 13:00:00 24.7 26 Sudeste 35 Sudeste 0 1008.2 -1.2 58
2017-11-22 12:00:00 25.2 25 Sudeste 32 Sudeste 0 1009.1 0.2 52
2017-11-22 11:00:00 24.2 20 Sudeste 28 Sur 0 1009.6 0.7 62
2017-11-22 10:00:00 25.3 16 Sur 22 Sur 0 1009.4 1 27
2017-11-22 09:00:00 22.3 9 Sur 17 Sudoeste 0 1008.9 0.6 27
2017-11-22 08:00:00 19.9 9 Sudoeste 17 Sur 0 1008.9 0.1 33
2017-11-22 07:00:00 20 12 Sudoeste 15 Sudoeste 0 1008.4 -0.4 46
2017-11-22 06:00:00 19 12 Sudoeste 13 Sudoeste 0 1008.3 -0.9 67
2017-11-22 05:00:00 18.5 8 Sudoeste 9 Sudoeste 0 1008.8 -0.8 57
2017-11-22 04:00:00 18.9 8 Sudoeste 9 Sudoeste 0 1008.8 -1 52
2017-11-22 03:00:00 20 6 Sudoeste 11 Sudoeste 0 1009.2 -1.2 38
2017-11-22 02:00:00 19.6 10 Sudoeste 13 Sur 0 1009.6 -0.4 47
2017-11-22 01:00:00 19.9 8 Sur 9 Sur 0 1009.8 -0.3 71
2017-11-22 00:00:00 20.9 3 Sur 17 Sur 0 1010.4 0.3 61
2017-11-21 23:00:00 23.3 9 Sur 18 Sudoeste 0 1010 -0.4 19
2017-11-21 22:00:00 23.9 9 Sudoeste 15 Oeste 0 1010.1 -0.4 17
2017-11-21 21:00:00 23.3 10 Sudoeste 17 Sudoeste 0 1010.1 -0.4 19
2017-11-21 20:00:00 22.2 12 Sudoeste 15 Sudoeste 0 1010.4 -0.1 37
2017-11-21 19:00:00 21.8 8 Sur 13 Sur 0 1010.5 0.1 49
2017-11-21 18:00:00 23 10 Sur 18 Sur 0 1010.5 0 45
2017-11-21 17:00:00 23.3 15 Sur 22 Sudeste 0 1010.5 -0.4 43
2017-11-21 16:00:00 24.3 16 Sur 26 Sur 0 1010.4 -1.4 40
2017-11-21 15:00:00 25.5 17 Sur 30 Sur 0 1010.5 -2.4 31
2017-11-21 14:00:00 25.3 17 Sur -- -- -- 1010.9 -2.7 31
2017-11-21 13:00:00 25.6 17 Sur 26 Sur 0 1011.8 -1.5 36
2017-11-21 12:00:00 25.1 17 Sur 22 Sur 0 1012.9 0.1 38
2017-11-21 11:00:00 23.7 14 Sudeste 22 Sur 0 1013.6 1.2 53
2017-11-21 10:00:00 25.2 14 Sur 26 Sur 0 1013.3 1.3 28
2017-11-21 09:00:00 24.5 15 Sudoeste 24 Sudoeste 0 1012.8 1.3 25
2017-11-21 08:00:00 22.6 13 Sudoeste 22 Sudoeste 0 1012.4 1.1 26
2017-11-21 07:00:00 19.4 12 Sudoeste 17 Sudoeste 0 1012 0.6 30
2017-11-21 06:00:00 19 7 Sudoeste 18 Sudoeste 0 1011.5 -0.2 40
2017-11-21 05:00:00 19.4 8 Sudoeste 15 Sudoeste 0 1011.3 -0.5 51
2017-11-21 04:00:00 20 9 Sudoeste 15 Sudoeste 0 1011.4 -0.4 48
2017-11-21 03:00:00 19.5 6 Oeste 13 Oeste 0 1011.7 -0.6 33
2017-11-21 02:00:00 19.8 10 Oeste 13 Oeste 0 1011.8 -0.5 28
2017-11-21 01:00:00 18.6 8 Oeste 11 Oeste 0 1011.8 -0.5 37
2017-11-21 00:00:00 18.3 8 Oeste 11 Oeste 0 1012.3 0.6 55
2017-11-20 23:00:00 19 9 Noroeste 11 Oeste 0 1012.3 0.8 76
2017-11-20 22:00:00 19.1 -- -- -- -- 0 1012.3 1.1 64
2017-11-20 21:00:00 18.8 0 Calma 8 Noroeste 0 1011.7 0.9 53
2017-11-20 20:00:00 20.1 3 Sur 11 Sur 0 1011.5 0.9 59
2017-11-20 19:00:00 21 8 Sur 15 Sur 0 1011.2 0.7 67
2017-11-20 18:00:00 22 12 Sur 17 Sur 0 1010.8 0.1 66
2017-11-20 17:00:00 23.3 15 Sudeste 28 Sudeste 0 1010.6 -0.6 66
2017-11-20 16:00:00 24.1 14 Sudeste 28 Sudeste 0 1010.5 -1.7 56
2017-11-20 15:00:00 25.1 15 Sudeste 32 Este 0 1010.7 -2.1 46
2017-11-20 14:00:00 24.7 10 Sur 18 Este 0 1011.2 -1.8 51
2017-11-20 13:00:00 23.9 7 Este 24 Sudeste 0 1012.2 -0.5 61
2017-11-20 12:00:00 23.3 5 Este 17 Este 0 1012.8 0.9 67
2017-11-20 11:00:00 23.4 7 Sudeste 24 Este 0 1013 1.3 60
2017-11-20 10:00:00 23.3 2 Este 15 Sudoeste 0 1012.7 1.7 59
2017-11-20 09:00:00 20.7 9 Sudoeste 15 Sudoeste 0 1011.9 1.4 75
2017-11-20 08:00:00 18.1 2 Noroeste 9 Noroeste 0 1011.7 1.3 74
2017-11-20 07:00:00 17.5 5 Noroeste 9 Noroeste 0 1011 0.6 74
2017-11-20 06:00:00 18.1 5 Noroeste 13 Noroeste 0 1010.5 0 82
2017-11-20 05:00:00 18.5 11 Noroeste 13 Noroeste 0 1010.4 -0.3 81
2017-11-20 04:00:00 18.8 9 Norte 17 Norte 0 1010.4 -0.6 79
2017-11-20 03:00:00 19 11 Norte 17 Norte 0 1010.5 -0.8 80
2017-11-20 02:00:00 19.2 10 Norte 18 Noroeste 0 1010.7 -0.7 80
2017-11-20 01:00:00 19.1 12 Norte 22 Norte 0 1011 -0.3 81
2017-11-20 00:00:00 20.1 19 Norte 28 Norte 0 1011.3 0.2 79
2017-11-19 23:00:00 20.2 16 Norte 30 Nordeste 0 1011.4 0.5 79
2017-11-19 22:00:00 20.4 19 Norte 30 Norte 0 1011.3 0.6 78
2017-11-19 21:00:00 20.4 17 Norte 28 Norte 0 1011.1 0.7 77
2017-11-19 20:00:00 20.5 21 Norte 32 Norte 0 1010.9 0.7 75
2017-11-19 19:00:00 20.4 17 Norte 28 Norte 0 1010.7 0.7 74
2017-11-19 18:00:00 20.8 18 Norte 35 Norte 0 1010.4 0.6 69
2017-11-19 17:00:00 21.3 26 Norte 33 Norte 0 1010.2 -0.1 69
2017-11-19 16:00:00 22 26 Norte 33 Norte 0 1010 -0.9 64
2017-11-19 15:00:00 22 23 Nordeste 32 Nordeste 0 1009.8 -1.7 64
2017-11-19 14:00:00 22.3 23 Nordeste 32 Nordeste 0 1010.3 -1.7 63
2017-11-19 13:00:00 22.2 20 Nordeste 30 Nordeste 0 1010.9 -0.9 63
2017-11-19 12:00:00 22.3 20 Nordeste 28 Nordeste 0 1011.5 -0.1 62
2017-11-19 11:00:00 22 20 Nordeste 28 Nordeste 0 1012 0.8 64
2017-11-19 10:00:00 22 20 Nordeste 26 Nordeste 0 1011.8 1.2 62
2017-11-19 09:00:00 20.8 17 Nordeste 24 Nordeste 0 1011.6 1.3 71
2017-11-19 08:00:00 19.6 11 Norte 17 Norte 0 1011.2 1.1 75
2017-11-19 07:00:00 18.7 10 Norte 24 Norte 0 1010.6 0.4 76
2017-11-19 06:00:00 19.7 20 Norte 30 Nordeste 0 1010.3 -0.1 74
2017-11-19 05:00:00 19.6 21 Nordeste 30 Nordeste 0 1010.1 -0.3 76
2017-11-19 04:00:00 19.7 21 Norte 28 Norte 0 1010.2 -0.5 75
2017-11-19 03:00:00 19.7 21 Nordeste 30 Nordeste 0 1010.4 -0.8 77
2017-11-19 02:00:00 19.8 17 Nordeste 26 Nordeste 0 1010.4 -0.8 78
2017-11-19 01:00:00 20 19 Nordeste 24 Nordeste 0 1010.7 -0.6 76
2017-11-19 00:00:00 20.3 19 Norte 24 Nordeste 0 1011.2 0.1 74
2017-11-18 23:00:00 20.2 18 Norte 28 Nordeste 0 1011.2 0.2 74
2017-11-18 22:00:00 20.2 12 Norte 18 Norte 0 1011.3 0.6 72
2017-11-18 21:00:00 19.9 11 Norte 22 Norte 0 1011.1 0.7 73
2017-11-18 20:00:00 20.4 15 Norte 26 Norte 0 1011 0.6 72
2017-11-18 19:00:00 20.5 16 Norte 30 Nordeste 0 1010.7 0.7 72
2017-11-18 18:00:00 21 19 Nordeste 26 Nordeste 0 1010.4 0.5 70
2017-11-18 17:00:00 21.4 17 Nordeste 24 Nordeste 0 1010.4 -0.1 68
2017-11-18 16:00:00 22 15 Nordeste 26 Nordeste 0 1010 -1.3 65
2017-11-18 15:00:00 22.2 11 Este 21 Este 0 1009.9 -2.3 65
2017-11-18 14:00:00 22.3 10 Este 22 Este 0 1010.5 -2.3 65
2017-11-18 13:00:00 22.2 12 Este 21 Este 0 1011.3 -1.5 65
2017-11-18 12:00:00 22.2 12 Este 22 Este 0 1012.2 0 63
2017-11-18 11:00:00 21.6 12 Este 22 Nordeste 0 1012.8 1.1 67
2017-11-18 10:00:00 21.1 10 Nordeste 17 Nordeste 0 1012.8 1.5 69
2017-11-18 09:00:00 20.5 9 Nordeste 15 Nordeste 0 1012.2 1.3 71
2017-11-18 08:00:00 19.7 4 Norte 11 Nordeste 0 1011.7 0.9 74
2017-11-18 07:00:00 19.9 8 Nordeste 13 Nordeste 0 1011.3 0.3 73
2017-11-18 06:00:00 19.9 9 Nordeste 15 Nordeste 0 1010.9 -0.3 77
2017-11-18 05:00:00 20 10 Nordeste 13 Nordeste 0 1010.8 -0.8 77
2017-11-18 04:00:00 19.9 5 Norte 15 Nordeste 0 1011 -0.8 76
2017-11-18 03:00:00 20 11 Nordeste 15 Nordeste 0 1011.2 -1.2 75
2017-11-18 02:00:00 20.1 8 Nordeste 13 Nordeste 0 1011.6 -0.8 74
2017-11-18 01:00:00 20.3 10 Nordeste 18 Nordeste 0 1011.8 -0.4 73
2017-11-18 00:00:00 20.4 11 Nordeste 18 Nordeste 0 1012.4 -0.2 75
2017-11-17 23:00:00 20.4 17 Nordeste 28 Nordeste 0 1012.4 0.2 71
2017-11-17 22:00:00 20.5 23 Norte 30 Norte 0 1012.2 0.3 72
2017-11-17 21:00:00 20.5 21 Norte 32 Norte 0 1012.6 1 69
2017-11-17 20:00:00 20.4 18 Norte 30 Norte 0 1012.2 0.8 70
2017-11-17 19:00:00 20.4 13 Norte 26 Norte 0 1011.9 0.6 71
2017-11-17 18:00:00 20.7 20 Norte 30 Nordeste 0 1011.6 0.3 69
2017-11-17 17:00:00 21.4 22 Nordeste 33 Norte 0 1011.4 -0.6 66
2017-11-17 16:00:00 21.8 21 Nordeste 28 Nordeste 0 1011.3 -1.3 63
2017-11-17 15:00:00 21.8 18 Nordeste 28 Nordeste 0 1011.3 -2.1 63
2017-11-17 14:00:00 22.2 18 Nordeste 26 Nordeste 0 1012 -1.9 63
2017-11-17 13:00:00 22.4 17 Nordeste 24 Nordeste 0 1012.6 -1.2 61
2017-11-17 12:00:00 22 15 Nordeste 24 Nordeste 0 1013.4 0.3 64
2017-11-17 11:00:00 21.3 14 Nordeste 22 Este 0 1013.9 1.2 65
2017-11-17 10:00:00 21.2 16 Nordeste 24 Nordeste 0 1013.8 1.5 67
2017-11-17 09:00:00 20.4 12 Norte 18 Norte 0 1013.1 1.1 70
2017-11-17 08:00:00 18.5 9 Norte 17 Norte 0 1012.7 1.2 78
2017-11-17 07:00:00 18.2 9 Norte 17 Norte 0 1012.3 0.5 79
2017-11-17 06:00:00 18.2 10 Norte 15 Norte 0 1012 -0.1 79
2017-11-17 05:00:00 18.1 9 Noroeste 13 Norte 0 1011.5 -0.9 78
2017-11-17 04:00:00 18.8 10 Noroeste 13 Noroeste 0 1011.8 -1 76
2017-11-17 03:00:00 18.8 7 Noroeste 13 Noroeste 0 1012.1 -1.6 75
2017-11-17 02:00:00 18.8 6 Noroeste 13 Noroeste 0 1012.4 -1.1 74
2017-11-17 01:00:00 19.3 8 Noroeste 13 Noroeste 0 1012.8 -0.8 72
2017-11-17 00:00:00 19.4 6 Norte 11 Norte 0 1013.7 0.3 72
2017-11-16 23:00:00 19.1 9 Noroeste 15 Noroeste 0 1013.5 0.4 72
2017-11-16 22:00:00 18.8 11 Noroeste 15 Noroeste 0 1013.6 0.9 73
2017-11-16 21:00:00 18.5 9 Norte 17 Norte 0 1013.4 1.3 73
2017-11-16 20:00:00 19.6 10 Norte 21 Norte 0 1013.1 1.3 71
2017-11-16 19:00:00 20 16 Norte 24 Norte 0 1012.7 1.3 69
2017-11-16 18:00:00 20.3 18 Norte 28 Nordeste 0 1012.1 0.5 66
2017-11-16 17:00:00 21.1 21 Nordeste 32 Norte 0 1011.8 -0.2 63
2017-11-16 16:00:00 21.7 22 Nordeste 30 Nordeste 0 1011.4 -1.5 60
2017-11-16 15:00:00 22 21 Nordeste 32 Nordeste 0 1011.6 -2.1 58
2017-11-16 14:00:00 22.3 22 Nordeste 32 Nordeste 0 1012 -2.3 56
2017-11-16 13:00:00 22.5 22 Nordeste 33 Nordeste 0 1012.9 -1.2 57
2017-11-16 12:00:00 22.3 18 Nordeste 28 Nordeste 0 1013.7 0.1 56
2017-11-16 11:00:00 21.8 20 Nordeste 28 Nordeste 0 1014.3 1.2 58
2017-11-16 10:00:00 21.2 18 Nordeste 24 Norte 0 1014.1 1.5 60
2017-11-16 09:00:00 20.1 9 Norte 15 Norte 0 1013.6 1.6 65
2017-11-16 08:00:00 17.1 8 Noroeste 13 Oeste 0 1013.1 1.4 74
2017-11-16 07:00:00 16.9 10 Oeste 13 Noroeste 0 1012.6 0.9 75
2017-11-16 06:00:00 17.1 10 Oeste 13 Oeste 0 1012 0.2 74
2017-11-16 05:00:00 17.6 9 Noroeste 13 Noroeste 0 1011.7 -0.3 72
2017-11-16 04:00:00 17.6 10 Noroeste 15 Norte 0 1011.7 -0.6 72
2017-11-16 03:00:00 17.7 9 Noroeste 15 Norte 0 1011.8 -1 72
2017-11-16 02:00:00 18 9 Noroeste 15 Norte 0 1012 -1.1 70
2017-11-16 01:00:00 18.7 9 Norte 17 Norte 0 1012.3 -0.9 67
2017-11-16 00:00:00 18.7 10 Norte 18 Norte 0 1012.8 -0.4 68
2017-11-15 23:00:00 18.7 13 Norte 21 Noroeste 0 1013.1 0.6 68
2017-11-15 22:00:00 19.3 9 Norte 15 Noroeste 0 1013.2 1.1 67
2017-11-15 21:00:00 20 11 Norte 22 Norte 0 1013.2 1.5 67
2017-11-15 20:00:00 20.3 15 Norte 22 Norte 0 1012.5 1.4 63
2017-11-15 19:00:00 20.3 16 Norte 32 Norte 0 1012.1 1.3 63
2017-11-15 18:00:00 20.6 21 Norte 35 Norte 0 1011.7 1.1 61
2017-11-15 17:00:00 21.6 22 Norte 39 Nordeste 0 1011.1 0.1 58
2017-11-15 16:00:00 21.9 28 Norte 39 Norte 0 1010.8 -1 57
2017-11-15 15:00:00 22.2 30 Norte 41 Nordeste 0 1010.6 -1.9 56
2017-11-15 14:00:00 22.8 30 Nordeste 45 Nordeste 0 1011 -2.2 55
2017-11-15 13:00:00 23.1 30 Nordeste 41 Nordeste 0 1011.8 -1.4 53
2017-11-15 12:00:00 22.9 28 Nordeste 41 Nordeste 0 1012.5 -0.4 50
2017-11-15 11:00:00 22.5 28 Norte 39 Nordeste 0 1013.2 0.9 52
2017-11-15 10:00:00 21.2 23 Norte 32 Norte 0 1013.2 1.7 61
2017-11-15 09:00:00 20.6 13 Norte 24 Norte 0 1012.9 1.5 63
2017-11-15 08:00:00 19.6 10 Norte 22 Noroeste 0 1012.3 1.3 64
2017-11-15 07:00:00 18.8 12 Norte 21 Norte 0 1011.5 0.6 67
2017-11-15 06:00:00 19 11 Norte 21 Noroeste 0 1011.4 0.2 67
2017-11-15 05:00:00 19 12 Norte 22 Norte 0 1011 -0.5 67
2017-11-15 04:00:00 19.6 14 Norte 21 Noroeste 0 1010.9 -1.4 66
2017-11-15 03:00:00 19.6 9 Norte 21 Noroeste 0 1011.2 -1.4 63
2017-11-15 02:00:00 19.8 13 Noroeste 21 Noroeste 0 1011.5 -1.5 62
2017-11-15 01:00:00 19.6 10 Noroeste 22 Norte 0 1012.3 -0.5 66
2017-11-15 00:00:00 20.2 11 Norte 18 Norte 0 1012.6 -0.1 64
2017-11-14 23:00:00 20.1 12 Norte 24 Noroeste 0 1013 0.8 63
2017-11-14 22:00:00 19.5 13 Norte 22 Noroeste 0 1012.8 1.2 66
2017-11-14 21:00:00 19.5 13 Norte 21 Norte 0 1012.7 -- 65
2017-11-14 20:00:00 20.1 15 Norte 32 Norte 0 1012.2 0.9 63
2017-11-14 19:00:00 20.5 23 Norte 37 Norte 0 1011.6 0.5 61
2017-11-14 18:00:00 -- -- -- -- -- -- -- -- --
2017-11-14 17:00:00 21.6 27 Norte 45 Norte 0 1011.3 -0.2 58
2017-11-14 16:00:00 22.1 30 Norte 41 Norte 0 1011.1 -1.3 57
2017-11-14 15:00:00 22.6 27 Norte 41 Norte 0 1011 -2.4 56
2017-11-14 14:00:00 23.1 30 Norte 46 Nordeste 0 1011.5 -2.4 54
2017-11-14 13:00:00 22.9 32 Norte 41 Norte 0 1012.4 -1.7 55
2017-11-14 12:00:00 22.7 28 Norte 48 Norte 0 1013.4 -0.5 54
2017-11-14 11:00:00 21.8 31 Norte 41 Norte 0 1013.9 0.7 60
2017-11-14 10:00:00 21.6 19 Norte 41 Norte 0 1014.1 1.1 56
2017-11-14 09:00:00 20.5 25 Norte 41 Noroeste 0 1013.9 1.3 60
2017-11-14 08:00:00 20 22 Norte 37 Noroeste 0 1013.2 0.6 63
2017-11-14 07:00:00 19.8 14 Norte 35 Noroeste 0 1013 0.2 63
2017-11-14 06:00:00 19.7 25 Norte 41 Norte 0 1012.6 -0.6 64
2017-11-14 05:00:00 20.2 20 Norte 32 Norte 0 1012.6 -0.3 65
2017-11-14 04:00:00 20.2 22 Norte 32 Norte 0 1012.8 -0.7 64
2017-11-14 03:00:00 20.4 16 Norte 32 Norte 0 1013.2 -0.9 65
2017-11-14 02:00:00 20 14 Norte 39 Norte 0 1012.9 -1.8 64
2017-11-14 01:00:00 20.5 24 Norte 37 Norte 0 1013.5 -0.8 66
2017-11-14 00:00:00 20.6 20 Norte 33 Norte 0 1014.1 0 67
2017-11-13 23:00:00 20.6 15 Norte 28 Norte 0 1014.7 0.7 67
2017-11-13 22:00:00 20.5 18 Norte 37 Norte 0 1014.3 0.6 68
2017-11-13 21:00:00 20.7 20 Norte 33 Norte 0 1014.1 0.8 68
2017-11-13 20:00:00 20.9 23 Norte 33 Norte 0 1014 0.8 70
2017-11-13 19:00:00 20.9 22 Norte 35 Norte 0 1013.7 0.6 69
2017-11-13 18:00:00 21 27 Norte 37 Norte 0 1013.3 0 70
2017-11-13 17:00:00 21.8 30 Norte 39 Norte 0 1013.2 -0.6 66
2017-11-13 16:00:00 22.3 32 Norte 39 Norte 0 1013.1 -1.3 65
2017-11-13 15:00:00 22.4 28 Norte 39 Norte 0 1013.3 -2.2 65
2017-11-13 14:00:00 22.8 28 Norte 41 Nordeste 0 1013.8 -2.2 65
2017-11-13 13:00:00 23 30 Nordeste 39 Nordeste 0 1014.4 -1.5 65
2017-11-13 12:00:00 22.5 28 Norte 41 Nordeste 0 1015.5 -0.2 68
2017-11-13 11:00:00 22.5 27 Nordeste 37 Norte 0 1016 0.7 66
2017-11-13 10:00:00 21.9 27 Nordeste 33 Norte 0 1015.9 1.1 68
2017-11-13 09:00:00 21.2 15 Norte 24 Norte 0 1015.7 1.5 73
2017-11-13 08:00:00 19.4 15 Norte 24 Norte 0 1015.3 1 79
2017-11-13 07:00:00 18.8 14 Norte 22 Norte 0 1014.8 0.2 80
2017-11-13 06:00:00 19 14 Norte 26 Norte 0 1014.2 -0.4 78
2017-11-13 05:00:00 19 12 Norte 18 Norte 0 1014.3 -0.4 80
2017-11-13 04:00:00 19.4 11 Norte 18 Norte 0 1014.6 -0.8 82
2017-11-13 03:00:00 19.7 13 Norte 21 Norte 0 1014.6 -1.5 79
2017-11-13 02:00:00 19.9 13 Norte 22 Norte 0 1014.7 -1.4 78
2017-11-13 01:00:00 20.3 12 Norte 21 Norte 0 1015.4 -0.5 78
2017-11-13 00:00:00 20.6 13 Norte 21 Norte 0 1016.1 0.8 80
2017-11-12 23:00:00 20.5 10 Norte 17 Norte 0 1016.1 1.4 79
2017-11-12 22:00:00 20.9 11 Norte 18 Norte 0 1015.9 1.5 70
2017-11-12 21:00:00 20.7 10 Norte 15 Norte 0 1015.3 1.2 66
2017-11-12 20:00:00 21.9 10 Norte 21 Norte 0 1014.7 1 65
2017-11-12 19:00:00 22.3 14 Norte 18 Norte 0 1014.4 1 59
2017-11-12 18:00:00 22.7 5 Este 11 Este 0 1014.1 0.6 56
2017-11-12 17:00:00 23.6 7 Este 17 Este 0 1013.7 -0.2 56
2017-11-12 16:00:00 24.2 9 Sudeste 24 Este 0 1013.4 -1.4 53
2017-11-12 15:00:00 24.8 10 Sudeste 28 Este 0 1013.5 -2.1 49
2017-11-12 14:00:00 25.2 11 Este 18 Este 0 1013.9 -2.3 49
2017-11-12 13:00:00 24.8 9 Este 18 Este 0 1014.8 -1.6 57
2017-11-12 12:00:00 24.5 8 Este 17 Este 0 1015.6 -0.6 59
2017-11-12 11:00:00 24.5 8 Nordeste 17 Este 0 1016.2 0.7 58
2017-11-12 10:00:00 23.8 4 Nordeste 17 Este 0 1016.4 1.5 60
2017-11-12 09:00:00 23.4 4 Este 11 Nordeste 0 1016.2 1.7 62
2017-11-12 08:00:00 19.8 3 Noroeste 8 Noroeste 0 1015.5 1.3 57
2017-11-12 07:00:00 19.7 6 Noroeste 8 Noroeste 0 1014.9 0.8 50
2017-11-12 06:00:00 20.1 4 Sudeste 11 Noroeste 0 1014.5 0.3 47
2017-11-12 05:00:00 20.7 6 Norte 17 Noroeste 0 1014.2 -0.7 46
2017-11-12 04:00:00 20.7 12 Noroeste 18 Norte 0 1014.1 -0.9 54
2017-11-12 03:00:00 19.9 9 Norte 17 Norte 0 1014.2 -1.6 81
2017-11-12 02:00:00 20.1 8 Norte 17 Norte 0 1014.9 -0.7 86
2017-11-12 01:00:00 20.3 10 Norte 15 Norte 0 1015 -0.6 90
2017-11-12 00:00:00 20.4 10 Norte 17 Norte 0 1015.8 0.4 88
2017-11-11 23:00:00 20.7 10 Norte 17 Norte 0 1015.6 0.8 87
2017-11-11 22:00:00 21 12 Norte 21 Norte 0 1015.6 1.2 85
2017-11-11 21:00:00 21.1 12 Norte 17 Norte 0 1015.4 1.3 82
2017-11-11 20:00:00 21.4 11 Norte 21 Norte 0 1014.8 1 80
2017-11-11 19:00:00 21.8 12 Norte 21 Norte 0 1014.4 0.5 80
2017-11-11 18:00:00 22.3 16 Norte 22 Norte 0 1014.1 -0.1 76
2017-11-11 17:00:00 24.3 13 Norte 18 Nordeste 0 1013.8 -0.6 57
2017-11-11 16:00:00 25.2 9 Nordeste 21 Nordeste 0 1013.9 -1.4 40
2017-11-11 15:00:00 24.7 13 Nordeste 30 Nordeste 0 1014.2 -2 59
2017-11-11 14:00:00 25.1 22 Nordeste 32 Nordeste 0 1014.4 -2.1 65
2017-11-11 13:00:00 23.8 19 Norte 30 Nordeste 0 1015.3 -0.5 68
2017-11-11 12:00:00 23.4 23 Nordeste 35 Nordeste 0 1016.2 0.8 70
2017-11-11 11:00:00 23 26 Norte 35 Nordeste 0 1016.5 1.5 71
2017-11-11 10:00:00 22.9 22 Norte 32 Norte 0 1015.8 1.3 70
2017-11-11 09:00:00 21.7 19 Norte 32 Norte 0 1015.4 1.5 75
2017-11-11 08:00:00 20.4 17 Norte 26 Norte 0 1015 1.3 79
2017-11-11 07:00:00 20.1 16 Norte 28 Norte 0 1014.5 0.7 75
2017-11-11 06:00:00 20 17 Norte 30 Norte 0 1013.9 0.3 77
2017-11-11 05:00:00 20.1 17 Norte 28 Norte 0 1013.7 -0.1 77
2017-11-11 04:00:00 20.2 18 Norte 30 Norte 0 1013.8 -0.4 76
2017-11-11 03:00:00 20.2 18 Norte 30 Norte 0 1013.6 -1 79
2017-11-11 02:00:00 20.2 18 Norte 32 Norte 0 1013.8 -0.9 74
2017-11-11 01:00:00 20.2 19 Norte 32 Norte 0 1014.2 -0.8 76
2017-11-11 00:00:00 20.2 18 Norte 30 Norte 0 1014.6 -0.2 76
2017-11-10 23:00:00 20.3 17 Norte 28 Norte 0 1014.7 0.3 75
2017-11-10 22:00:00 20.5 15 Norte 28 Norte 0 1015 1.2 75
2017-11-10 21:00:00 20.7 18 Norte 28 Norte 0 1014.8 1.5 74
2017-11-10 20:00:00 21 18 Norte 30 Norte 0 1014.4 1.4 72
2017-11-10 19:00:00 21.4 21 Norte 37 Norte 0 1013.8 1.1 72
2017-11-10 18:00:00 22 24 Norte 39 Norte 0 1013.3 0.8 68
2017-11-10 17:00:00 22.8 24 Norte 39 Norte 0 1013 0.2 64
2017-11-10 16:00:00 23.2 28 Norte 41 Norte 0 1012.7 -0.7 65
2017-11-10 15:00:00 23.6 30 Norte 41 Norte 0 1012.5 -1.8 63
2017-11-10 14:00:00 23.3 31 Norte 45 Nordeste 0 1012.8 -2 65
2017-11-10 13:00:00 23.4 31 Norte 42 Norte 0 1013.4 -1.1 66
2017-11-10 12:00:00 23.3 32 Norte 42 Norte 0 1014.3 0.2 67
2017-11-10 11:00:00 23.1 30 Norte 42 Nordeste 0 1014.8 1.3 67
2017-11-10 10:00:00 22.5 24 Norte 37 Norte 0 1014.5 1.5 70
2017-11-10 09:00:00 21.9 22 Norte 32 Norte 0 1014.1 1.6 75
2017-11-10 08:00:00 20.3 18 Norte 26 Norte 0 1013.5 1.2 78
2017-11-10 07:00:00 20.3 14 Norte 26 Norte 0 1013 0.7 78
2017-11-10 06:00:00 20.5 16 Norte 28 Noroeste 0 1012.5 0.3 77
2017-11-10 05:00:00 20.5 14 Norte 28 Norte 0 1012.3 -0.3 77
2017-11-10 04:00:00 20.6 17 Norte 30 Norte 0 1012.3 -0.2 78
2017-11-10 03:00:00 20.5 16 Norte 30 Norte 0 1012.2 -0.1 81
2017-11-10 02:00:00 20.7 16 Norte 28 Norte 0 1012.6 0.2 82
2017-11-10 01:00:00 21 16 Norte 26 Norte 0 1012.5 0 85
2017-11-10 00:00:00 19.7 11 Norte 18 Norte 0 1012.3 0 62
2017-11-09 23:00:00 19.8 4 Noroeste 15 Norte 0 1012.4 0.4 64
2017-11-09 22:00:00 20.9 12 Norte 21 Norte 0 1012.5 1.1 71
2017-11-09 21:00:00 21.3 13 Norte 22 Norte 0 1012.3 1.4 79
2017-11-09 20:00:00 21.5 12 Norte 18 Norte 0 1012 1.6 78
2017-11-09 19:00:00 21.8 10 Norte 18 Norte 0 1011.4 1.2 75
2017-11-09 18:00:00 22.6 13 Norte 21 Norte 0 1010.9 0.9 76
2017-11-09 17:00:00 23.1 14 Nordeste 22 Nordeste 0 1010.4 0.2 73
2017-11-09 16:00:00 23.6 12 Nordeste 24 Nordeste 0 1010.2 -0.4 72
2017-11-09 15:00:00 24 15 Este 22 Nordeste 0 1010 -1.2 68
2017-11-09 14:00:00 24.1 14 Este 22 Este 0 1010.2 -1.4 68
2017-11-09 13:00:00 24 15 Este 30 Este 0 1010.6 -0.8 70
2017-11-09 12:00:00 23.9 16 Este 24 Nordeste 0 1011.2 0.1 72
2017-11-09 11:00:00 23.4 17 Nordeste 26 Nordeste 0 1011.6 1 75
2017-11-09 10:00:00 23.5 18 Nordeste 24 Nordeste 0 1011.4 1.8 73
2017-11-09 09:00:00 22.6 10 Norte 15 Norte 0 1011.1 2.1 75
2017-11-09 08:00:00 20.6 8 Noroeste 13 Noroeste 0 1010.6 2 80
2017-11-09 07:00:00 19.4 8 Noroeste 13 Noroeste 0 1009.6 1 78
2017-11-09 06:00:00 18.4 8 Oeste 11 Oeste 0 1009 0.3 79
2017-11-09 05:00:00 18.5 8 Oeste 11 Oeste 0 1008.6 -0.2 78
2017-11-09 04:00:00 19.7 7 Oeste 11 Noroeste 0 1008.6 -0.5 78
2017-11-09 03:00:00 20.5 8 Norte 15 Noroeste 0 1008.7 -0.8 80
2017-11-09 02:00:00 20.6 5 Norte 13 Norte 0 1008.8 -0.7 81
2017-11-09 01:00:00 20.9 8 Noroeste 13 Noroeste 0 1009.1 -0.3 73
2017-11-09 00:00:00 19.8 3 Noroeste 8 Oeste 0 1009.5 0.6 74
2017-11-08 23:00:00 20.5 7 Oeste 9 Oeste 0 1009.5 1.5 74
2017-11-08 22:00:00 20.8 3 Oeste 9 Norte 0 1009.4 1.7 73
2017-11-08 21:00:00 21.6 8 Oeste 11 Oeste 0 1008.9 1.7 71
2017-11-08 20:00:00 21.4 6 Sur 11 Sur 0 1008 0.8 70
2017-11-08 19:00:00 22.7 9 Sur 15 Sur 0 1007.7 0.8 64
2017-11-08 18:00:00 23.5 8 Sur 17 Sur 0 1007.2 0.4 65
2017-11-08 17:00:00 24.4 10 Sudeste 17 Sudeste 0 1007.2 0.1 65
2017-11-08 16:00:00 25.1 12 Sudeste 26 Sudeste 0 1006.9 -0.7 60
2017-11-08 15:00:00 26 13 Sudeste 24 Sudeste 0 1006.8 -1.4 55
2017-11-08 14:00:00 26.5 15 Sudeste 28 Sudeste 0 1007.1 -1.4 51
2017-11-08 13:00:00 26.2 15 Sudeste 24 Sudeste 0 1007.6 -0.5 54
2017-11-08 12:00:00 25.2 9 Sudeste 22 Este 0 1008.2 0.5 63
2017-11-08 11:00:00 25 7 Este 15 Nordeste 0 1008.5 1.3 61
2017-11-08 10:00:00 24 7 Este 15 Este 0 1008.1 1.8 62
2017-11-08 09:00:00 22.9 5 Sur 9 Sudoeste 0 1007.7 1.7 59
2017-11-08 08:00:00 19.3 0 Calma 13 Sudoeste 0 1007.2 1.7 62
2017-11-08 07:00:00 18.3 5 Sudoeste 11 Sur 0 1006.3 0.5 63
2017-11-08 06:00:00 19.6 6 Noroeste 15 Norte 0 1006 -0.5 57
2017-11-08 05:00:00 19.9 8 Norte 22 Norte 0 1005.5 -1 55
2017-11-08 04:00:00 20.1 14 Norte 26 Norte 0 1005.8 -1 71
2017-11-08 03:00:00 20.8 13 Norte 32 Norte 0 1006.5 -0.6 78
2017-11-08 02:00:00 21 20 Norte 35 Norte 0 1006.5 -0.8 79
2017-11-08 01:00:00 21.1 20 Norte 37 Norte 0 1006.8 -0.7 82
2017-11-08 00:00:00 21.3 23 Norte 41 Norte 0 1007.1 -0.2 81
2017-11-07 23:00:00 21.5 24 Norte 39 Norte 0 1007.3 0.3 80
2017-11-07 22:00:00 21.6 23 Norte 39 Norte 0 1007.5 1 80
2017-11-07 21:00:00 21.8 22 Norte 35 Norte 0 1007.3 1.1 77
2017-11-07 20:00:00 21.8 19 Norte 33 Norte 0 1007 1.2 76
2017-11-07 19:00:00 21.9 20 Norte 39 Norte 0 1006.5 0.8 74
2017-11-07 18:00:00 22.4 27 Norte 45 Norte 0 1006.2 0.5 73
2017-11-07 17:00:00 22.9 32 Norte 52 Norte 0 1005.8 -0.6 71
2017-11-07 16:00:00 23.2 37 Norte 52 Norte 0 1005.7 -1.6 69
2017-11-07 15:00:00 23.8 38 Norte 58 Norte 0 1005.7 -2.1 66
2017-11-07 14:00:00 24.1 39 Norte 52 Norte 0 1006.4 -1.7 62
2017-11-07 13:00:00 23.8 35 Norte 54 Norte 0 1007.3 -1.2 64
2017-11-07 12:00:00 24 38 Norte 52 Norte 0 1007.8 -0.6 64
2017-11-07 11:00:00 23.1 39 Norte 48 Norte 0 1008.1 -0.2 69
2017-11-07 10:00:00 22.6 28 Norte 42 Norte 0 1008.5 0.6 70
2017-11-07 09:00:00 22 28 Norte 42 Norte 0 1008.4 0.8 72
2017-11-07 08:00:00 21.4 20 Norte 37 Norte 0 1008.3 0.8 74
2017-11-07 07:00:00 20.8 19 Norte 35 Norte 0 1007.9 0.5 75
2017-11-07 06:00:00 20.4 19 Norte 30 Noroeste 0 1007.6 0 75
2017-11-07 05:00:00 20.3 18 Norte 32 Norte 0 1007.5 -0.3 75
2017-11-07 04:00:00 20.4 19 Norte 33 Norte 0 1007.4 -1 75
2017-11-07 03:00:00 20.4 22 Norte 33 Norte 0 1007.6 -1.2 74
2017-11-07 02:00:00 20.4 19 Norte 32 Norte 0 1007.8 -1.1 74
2017-11-07 01:00:00 20.5 20 Norte 30 Norte 0 1008.4 -0.7 73
2017-11-07 00:00:00 21 21 Norte 37 Norte 0 1008.8 -0.1 73
2017-11-06 23:00:00 21.1 22 Norte 35 Norte 0 1008.9 0.1 73
2017-11-06 22:00:00 21 21 Norte 39 Norte 0 1009.1 0.6 71
2017-11-06 21:00:00 21.2 22 Norte 39 Norte 0 1008.9 0.7 70
2017-11-06 20:00:00 21.3 23 Norte 41 Norte 0 1008.8 0.2 70
2017-11-06 19:00:00 21.5 26 Norte 39 Norte 0 1008.5 -0.1 69
2017-11-06 18:00:00 21.8 27 Norte 41 Norte 0 1008.2 -0.6 68
2017-11-06 17:00:00 22.2 23 Norte 45 Norte 0 1008.6 -0.5 66
2017-11-06 16:00:00 22.8 24 Norte 41 Norte 0 1008.6 -1.6 66
2017-11-06 15:00:00 23.2 29 Norte 46 Norte 0 1008.8 -2.2 64
2017-11-06 14:00:00 23.6 33 Norte 45 Norte 0 1009.1 -2.4 61
2017-11-06 13:00:00 23.7 29 Norte 46 Norte 0 1010.2 -1.6 59
2017-11-06 12:00:00 24 31 Norte 42 Norte 0 1011 -0.7 56
2017-11-06 11:00:00 22.6 29 Norte 42 Norte 0 1011.5 0.1 63
2017-11-06 10:00:00 22.8 32 Norte 46 Norte 0 1011.8 0.6 64
2017-11-06 09:00:00 21.9 33 Norte 42 Norte 0 1011.7 0.8 65
2017-11-06 08:00:00 21.3 32 Norte 41 Norte 0 1011.4 0.4 71
2017-11-06 07:00:00 21.1 29 Norte 39 Norte 0 1011.2 -0.1 74
2017-11-06 06:00:00 21.1 24 Norte 35 Norte 0 1010.9 -0.8 72
2017-11-06 05:00:00 20.9 24 Norte 37 Norte 0 1011 -1.2 71
2017-11-06 04:00:00 20.4 20 Norte 30 Norte 0 1011.3 -1.3 69
2017-11-06 03:00:00 20.4 16 Norte 41 Norte 0 1011.7 -1.6 69
2017-11-06 02:00:00 21 29 Norte 41 Norte 0 1012.2 -1.3 68
2017-11-06 01:00:00 21.2 28 Norte 41 Norte 0 1012.6 -1 67
2017-11-06 00:00:00 21.2 23 Norte 42 Norte 0 1013.3 -0.2 65
2017-11-05 23:00:00 21.3 16 Norte 35 Norte 0 1013.5 0.4 69
2017-11-05 22:00:00 21.5 23 Norte 39 Norte 0 1013.6 0.9 67
2017-11-05 21:00:00 21.5 22 Norte 37 Norte 0 1013.5 1.2 69
2017-11-05 20:00:00 21.6 22 Norte 39 Norte 0 1013.1 0.8 67
2017-11-05 19:00:00 21.7 23 Norte 39 Norte 0 1012.7 0.4 67
2017-11-05 18:00:00 21.9 22 Norte 42 Norte 0 1012.3 -0.5 65
2017-11-05 17:00:00 22.7 27 Norte 46 Norte 0 1012.3 -1 64
2017-11-05 16:00:00 22.9 31 Norte 42 Norte 0 1012.3 -1.7 63
2017-11-05 15:00:00 22.9 25 Norte 45 Norte 0 1012.8 -1.9 64
2017-11-05 14:00:00 24.2 35 Norte 48 Norte 0 1013.3 -1.9 56
2017-11-05 13:00:00 24.2 34 Norte 46 Norte 0 1014 -1.3 59
2017-11-05 12:00:00 23.8 32 Norte 46 Norte 0 1014.7 -0.2 60
2017-11-05 11:00:00 23.6 34 Norte 45 Norte 0 1015.2 0.9 59
2017-11-05 10:00:00 22.9 32 Norte 41 Norte 0 1015.3 1.3 61
2017-11-05 09:00:00 22.5 32 Norte 41 Norte 0 1014.9 1.2 62
2017-11-05 08:00:00 21.1 18 Norte 32 Norte 0 1014.3 0.8 69
2017-11-05 07:00:00 20.5 15 Norte 32 Norte 0 1014 0.3 71
2017-11-05 06:00:00 20.8 23 Norte 35 Norte 0 1013.7 0 70
2017-11-05 05:00:00 20.5 18 Norte 28 Norte 0 1013.5 -0.5 75
2017-11-05 04:00:00 20.6 18 Norte 37 Norte 0 1013.7 -0.7 72
2017-11-05 03:00:00 20.8 21 Norte 35 Norte 0 1013.7 -1.1 73
2017-11-05 02:00:00 20 15 Norte 24 Norte 0.7 1014 -1 79
2017-11-05 01:00:00 19.9 14 Norte 21 Norte 0 1014.4 -0.1 75
2017-11-05 00:00:00 19.9 13 Norte 26 Norte 0 1014.8 0.7 74
2017-11-04 23:00:00 20.9 17 Norte 30 Norte 0 1015 1.4 68
2017-11-04 22:00:00 21 15 Norte 28 Norte 0 1014.5 1.2 68
2017-11-04 21:00:00 21.1 19 Norte 30 Norte 0 1014.1 1.2 69
2017-11-04 20:00:00 21 12 Norte 28 Norte 0 1013.6 0.8 72
2017-11-04 19:00:00 21.3 17 Norte 30 Norte 0 1013.3 0.6 71
2017-11-04 18:00:00 21.9 20 Norte 32 Norte 0 1012.9 0.3 69
2017-11-04 17:00:00 22.6 21 Norte 35 Norte 0 1012.8 -0.1 64
2017-11-04 16:00:00 23.6 25 Norte 37 Norte 0 1012.7 -0.8 63
2017-11-04 15:00:00 23.2 28 Norte 39 Nordeste 0 1012.6 -1.3 64
2017-11-04 14:00:00 23.5 28 Norte 37 Nordeste 0 1012.9 -1.2 62
2017-11-04 13:00:00 23.6 26 Nordeste 33 Nordeste 0 1013.5 -0.6 64
2017-11-04 12:00:00 21.5 18 Norte 39 Noroeste 0.6 1013.9 0.4 79
2017-11-04 11:00:00 23.5 27 Norte 35 Nordeste 0 1014.1 1.4 65
2017-11-04 10:00:00 22.3 23 Norte 32 Norte 0 1014.1 2.1 67
2017-11-04 09:00:00 22 15 Norte 24 Noroeste 0 1013.5 1.7 73
2017-11-04 08:00:00 20.1 16 Noroeste 22 Norte 0.3 1012.7 1.3 81
2017-11-04 07:00:00 20.3 17 Noroeste 26 Noroeste 0 1012 0.7 81
2017-11-04 06:00:00 20.6 14 Noroeste 22 Noroeste 0 1011.8 0.5 76
2017-11-04 05:00:00 20.4 12 Norte 24 Noroeste 0 1011.4 -0.3 80
2017-11-04 04:00:00 20.6 16 Noroeste 24 Noroeste 0 1011.3 -0.6 78
2017-11-04 03:00:00 20.8 15 Norte 26 Norte 0 1011.3 -1.1 75
2017-11-04 02:00:00 21 12 Noroeste 18 Noroeste 0 1011.7 -0.8 72
2017-11-04 01:00:00 21 10 Norte 21 Noroeste 0 1011.9 -0.6 66
2017-11-04 00:00:00 21 12 Norte 21 Noroeste 0 1012.4 0.3 68
2017-11-03 23:00:00 20.9 9 Norte 18 Norte 0 1012.5 0.8 68
2017-11-03 22:00:00 21.1 10 Norte 21 Norte 0 1012.5 1.2 69
2017-11-03 21:00:00 21.4 13 Norte 26 Norte 0 1012.1 1.2 70
2017-11-03 20:00:00 21.9 15 Norte 26 Norte 0 1011.7 1 70
2017-11-03 19:00:00 21.9 11 Norte 28 Norte 0 1011.3 0.7 75
2017-11-03 18:00:00 22.2 19 Norte 35 Norte 0 1010.9 0.1 75
2017-11-03 17:00:00 23.7 24 Nordeste 30 Norte 0 1010.7 -0.5 64
2017-11-03 16:00:00 23.1 17 Nordeste 24 Nordeste 0 1010.6 -1.2 69
2017-11-03 15:00:00 23.4 18 Nordeste 26 Nordeste 0 1010.8 -1.4 66
2017-11-03 14:00:00 23.1 13 Nordeste 22 Nordeste 0 1011.2 -1.5 66
2017-11-03 13:00:00 23.6 17 Nordeste 28 Nordeste 0 1011.8 -0.6 64
2017-11-03 12:00:00 23.7 19 Nordeste 28 Nordeste 0 1012.2 0.3 63
2017-11-03 11:00:00 23.8 20 Nordeste 26 Nordeste 0 1012.7 1.5 62
2017-11-03 10:00:00 23.2 18 Nordeste 24 Nordeste 0 1012.4 1.7 65
2017-11-03 09:00:00 22.5 14 Norte 21 Nordeste 0 1011.9 1.3 68
2017-11-03 08:00:00 19.9 0 Calma 8 Noroeste 0 1011.2 0.4 70
2017-11-03 07:00:00 18.9 5 Noroeste 8 Noroeste 0 1010.7 -0.3 71
2017-11-03 06:00:00 19 6 Noroeste 9 Oeste 0 1010.6 -0.4 69
2017-11-03 05:00:00 19.4 6 Oeste 9 Oeste 0 1010.8 -0.6 68
2017-11-03 04:00:00 19.8 6 Norte 13 Norte 0 1011 -0.6 68
2017-11-03 03:00:00 19.8 7 Norte 13 Norte 0 1011 -1.3 67
2017-11-03 02:00:00 20 7 Norte 15 Norte 0 1011.4 -1.1 67
2017-11-03 01:00:00 19.9 9 Norte 13 Norte 0 1011.6 -1 64
2017-11-03 00:00:00 19.6 9 Norte 15 Norte 0 1012.3 -0.1 66
2017-11-02 23:00:00 20.2 9 Norte 18 Noroeste 0 1012.5 0.6 63
2017-11-02 22:00:00 20.3 11 Norte 18 Noroeste 0 1012.6 1.2 62
2017-11-02 21:00:00 20.3 9 Norte 18 Norte 0 1012.4 1.5 60
2017-11-02 20:00:00 20.7 8 Norte 17 Norte 0 1011.9 1 59
2017-11-02 19:00:00 21.6 12 Norte 30 Norte 0 1011.4 0.5 60
2017-11-02 18:00:00 22.2 27 Norte 35 Nordeste 0 1010.9 -0.3 62
2017-11-02 17:00:00 23.1 26 Nordeste 37 Norte 0 1010.9 -0.7 60
2017-11-02 16:00:00 23.6 26 Nordeste 35 Nordeste 0 1010.9 -1.3 58
2017-11-02 15:00:00 24 23 Nordeste 33 Norte 0 1011.2 -1.8 56
2017-11-02 14:00:00 24.1 24 Nordeste 35 Nordeste 0 1011.6 -1.9 53
2017-11-02 13:00:00 24 22 Nordeste 33 Nordeste 0 1012.2 -1.3 55
2017-11-02 12:00:00 23.5 22 Nordeste 37 Nordeste -- 1013 -0.2 58
2017-11-02 11:00:00 23.3 23 Nordeste 33 Nordeste 0 1013.5 0.5 56
2017-11-02 10:00:00 22.7 19 Norte 32 Norte 0 1013.5 0.7 56
2017-11-02 09:00:00 21.5 12 Norte 21 Noroeste 0 1013.2 0.7 61
2017-11-02 08:00:00 19.9 10 Noroeste 18 Noroeste 0 1013 0.7 66
2017-11-02 07:00:00 19.5 12 Noroeste 17 Noroeste 0 1012.8 0.7 68
2017-11-02 06:00:00 19.5 11 Noroeste 18 Norte 0 1012.5 0.2 69
2017-11-02 05:00:00 19.1 10 Norte 21 Noroeste 0 1012.3 -0.2 71
2017-11-02 04:00:00 19.1 13 Norte 24 Norte 0 1012.1 -0.8 72
2017-11-02 03:00:00 20.2 19 Norte 30 Norte 0 1012.3 -1 69
2017-11-02 02:00:00 20.3 15 Norte 28 Norte 0 1012.5 -1.2 70
2017-11-02 01:00:00 20.3 15 Norte 28 Norte 0 1012.9 -1.1 70
2017-11-02 00:00:00 20.6 18 Norte 28 Norte 0 1013.3 -0.4 69
2017-11-01 23:00:00 21 18 Norte 32 Norte 0 1013.7 0.6 68
2017-11-01 22:00:00 21.3 18 Norte 33 Norte 0 1014 1.6 70
2017-11-01 21:00:00 21.4 21 Norte 32 Norte 0 1013.7 1.7 70
2017-11-01 20:00:00 21.3 19 Norte 30 Norte 0 1013.1 1.2 73
2017-11-01 19:00:00 21.5 17 Norte 30 Norte 0 1012.4 0.5 71
2017-11-01 18:00:00 22.1 22 Norte 35 Norte 0 1012 -0.3 69
2017-11-01 17:00:00 22.7 28 Norte 37 Nordeste 0 1011.9 -0.5 65
2017-11-01 16:00:00 23.3 25 Norte 39 Norte 0 1011.9 -1.1 63
2017-11-01 15:00:00 23.6 23 Norte 37 Nordeste 0 1012.3 -1.6 63
2017-11-01 14:00:00 24 23 Nordeste 35 Nordeste 0 1012.4 -2.1 61
2017-11-01 13:00:00 23.7 22 Nordeste 33 Nordeste 0 1013 -1.6 61
2017-11-01 12:00:00 23.9 26 Nordeste 39 Nordeste 0 1013.9 -0.4 60
2017-11-01 11:00:00 23.6 28 Nordeste 37 Norte 0 1014.5 0.9 59
2017-11-01 10:00:00 22.6 22 Norte 35 Norte 0 1014.6 1.8 62
2017-11-01 09:00:00 21.6 20 Norte 32 Norte 0 1014.3 2.3 66
2017-11-01 08:00:00 20.1 13 Norte 26 Norte 0 1013.6 2 70
2017-11-01 07:00:00 20.1 15 Norte 32 Norte 0 1012.8 1.4 72
2017-11-01 06:00:00 20 15 Norte 28 Noroeste 0 1012 0.4 73
2017-11-01 05:00:00 19.6 14 Norte 24 Norte 0 1011.6 -0.2 76
2017-11-01 04:00:00 20 18 Norte 26 Norte 0 1011.4 -0.8 76
2017-11-01 03:00:00 20 13 Norte 22 Noroeste 0 1011.6 -0.9 77
2017-11-01 02:00:00 20.1 13 Norte 22 Noroeste 0 1011.8 -1 78
2017-11-01 01:00:00 20.3 13 Norte 26 Norte 0 1012.2 -0.6 77
2017-11-01 00:00:00 20.6 17 Norte 26 Norte 0 1012.5 0.3 76
2017-10-31 23:00:00 20.4 13 Norte 22 Norte 0 1012.8 1.3 75
2017-10-31 22:00:00 20.7 11 Norte 28 Norte 0 1012.8 2 75
2017-10-31 21:00:00 21.1 17 Norte 26 Norte 0 1012.2 1.5 76
2017-10-31 20:00:00 21.2 16 Norte 28 Norte 0 1011.5 1 78
2017-10-31 19:00:00 21.5 20 Norte 30 Norte 0 1010.8 0.3 77
2017-10-31 18:00:00 22 23 Norte 33 Norte 0 1010.7 0.4 75
2017-10-31 17:00:00 22.7 26 Norte 35 Norte 0 1010.5 -0.1 72
2017-10-31 16:00:00 23.4 27 Norte 35 Nordeste 0 1010.5 -0.9 68
2017-10-31 15:00:00 23.8 27 Nordeste 37 Nordeste 0 1010.3 -1.8 65
2017-10-31 14:00:00 23.8 25 Norte 35 Nordeste 0 1010.6 -2 65
2017-10-31 13:00:00 23.9 25 Nordeste 35 Nordeste 0 1011.4 -1.1 64
2017-10-31 12:00:00 23.5 24 Nordeste 32 Nordeste 0 1012.1 0.2 65
2017-10-31 11:00:00 23.3 25 Nordeste 33 Nordeste 0 1012.6 1.5 65
2017-10-31 10:00:00 22.6 23 Norte 37 Nordeste 0 1012.5 2 68
2017-10-31 09:00:00 21.4 18 Norte 28 Norte 0 1011.9 2.2 73
2017-10-31 08:00:00 19.2 13 Norte 22 Norte 0 1011.1 1.7 80
2017-10-31 07:00:00 18.5 13 Norte 22 Noroeste 0 1010.5 1.2 82
2017-10-31 06:00:00 18.6 14 Norte 22 Norte 0 1009.7 0.3 81
2017-10-31 05:00:00 18.8 15 Norte 30 Norte 0 1009.4 -0.2 81
2017-10-31 04:00:00 19.8 22 Norte 33 Norte 0 1009.3 -0.6 79
2017-10-31 03:00:00 19.9 18 Norte 32 Norte 0 1009.4 -0.7 81
2017-10-31 02:00:00 19.8 15 Norte 32 Norte 0 1009.6 -0.8 82
2017-10-31 01:00:00 20 17 Norte 30 Norte 0 1009.9 -0.7 83
2017-10-31 00:00:00 19.9 16 Norte 24 Norte 0 1010.1 -0.3 82
2017-10-30 23:00:00 19.8 16 Norte 24 Norte 0 1010.4 0.3 81
2017-10-30 22:00:00 20.1 13 Norte 22 Norte 0 1010.6 1 82
2017-10-30 21:00:00 20.9 10 Norte 26 Noroeste 0 1010.4 1.1 81
2017-10-30 20:00:00 21.5 17 Norte 28 Norte 0 1010.1 0.8 80
2017-10-30 19:00:00 22 14 Norte 30 Norte 0 1009.6 0.2 75
2017-10-30 18:00:00 22.8 21 Norte 37 Nordeste 0 1009.3 -0.1 74
2017-10-30 17:00:00 23.8 24 Norte 37 Norte 0 1009.3 -0.4 70
2017-10-30 16:00:00 24.1 28 Norte 37 Norte 0 1009.4 -0.9 69
2017-10-30 15:00:00 24.1 30 Norte 39 Norte 0 1009.4 -1.7 68
2017-10-30 14:00:00 24.4 30 Nordeste 37 Norte 0 1009.7 -1.8 67
2017-10-30 13:00:00 24.2 30 Nordeste 41 Norte 0 1010.3 -1.3 66
2017-10-30 12:00:00 24.2 28 Nordeste 39 Norte 0 1011.1 -0.2 66
2017-10-30 11:00:00 23.5 29 Norte 39 Nordeste 0 1011.5 0.8 69
2017-10-30 10:00:00 23.1 24 Norte 35 Norte 0 1011.6 1.4 69
2017-10-30 09:00:00 22 20 Norte 32 Norte 0 1011.3 1.2 74
2017-10-30 08:00:00 19.2 17 Norte 26 Norte 0 1010.7 0.8 69
2017-10-30 07:00:00 18.5 15 Norte 26 Norte 0 1010.2 0.1 77
2017-10-30 06:00:00 18.6 17 Norte 26 Norte 0 1010.1 -0.5 77
2017-10-30 05:00:00 18.7 15 Norte 22 Norte 0 1009.9 -0.9 82
2017-10-30 04:00:00 18.7 14 Norte 26 Norte 0 1010.1 -1.1 83
2017-10-30 03:00:00 19.4 15 Norte 26 Norte 0 1010.6 -0.8 81
2017-10-30 02:00:00 19.9 16 Norte 32 Norte 0 1010.8 -1.1 80
2017-10-30 01:00:00 20.1 18 Norte 26 Norte 0 1011.2 -1.1 79
2017-10-30 00:00:00 20.6 19 Norte 30 Norte 0 1011.4 -0.9 78
2017-10-29 23:00:00 20.9 21 Norte 32 Norte 0 1011.9 0.1 76
2017-10-29 22:00:00 21.1 22 Norte 33 Norte 0 1012.3 0.5 76
2017-10-29 21:00:00 21.4 20 Norte 37 Norte 0 1012.3 0.7 76
2017-10-29 20:00:00 21.7 21 Norte 35 Norte 0 1011.8 0.2 77
2017-10-29 19:00:00 22 21 Norte 39 Norte 0 1011.8 0.3 76
2017-10-29 18:00:00 22.5 23 Norte 41 Norte 0 1011.6 -0.3 77
2017-10-29 17:00:00 23.2 34 Norte 41 Norte 0 1011.6 -0.6 76
2017-10-29 16:00:00 24.1 32 Norte 41 Norte 0 1011.5 -1.3 72
2017-10-29 15:00:00 24.4 35 Norte 41 Nordeste 0 1011.9 -1.6 70
2017-10-29 14:00:00 24.5 31 Nordeste 39 Norte 0 1012.2 -1.6 70
2017-10-29 13:00:00 24.5 28 Nordeste 35 Nordeste 0 1012.8 -0.9 71
2017-10-29 12:00:00 24.3 28 Nordeste 39 Nordeste 0 1013.5 0.1 71
2017-10-29 11:00:00 24.5 31 Nordeste 37 Nordeste 0 1013.8 0.8 71
2017-10-29 10:00:00 23.7 22 Norte 33 Norte 0 1013.7 1.1 72
2017-10-29 09:00:00 22.5 20 Norte 30 Norte 0 1013.4 1.2 76
2017-10-29 08:00:00 20.8 16 Norte 28 Norte 0 1013 1.1 82
2017-10-29 07:00:00 20.3 18 Norte 26 Norte 0 1012.6 0.7 74
2017-10-29 06:00:00 20.6 17 Norte 26 Norte 0 1012.2 -0.1 62
2017-10-29 05:00:00 21 11 Norte 21 Norte 0 1011.9 -0.5 49
2017-10-29 04:00:00 22.7 13 Norte 24 Norte 0 1011.9 -0.9 28
2017-10-29 03:00:00 22.6 15 Norte 24 Norte 0 1012.3 -1.1 27
2017-10-29 02:00:00 22.5 13 Norte 24 Norte 0 1012.4 -1.3 29
2017-10-29 01:00:00 23.2 17 Norte 26 Norte 0 1012.8 -0.8 31
2017-10-29 00:00:00 23.3 14 Norte 24 Norte 0 1013.7 0.7 40
2017-10-28 23:00:00 23.2 14 Norte 24 Norte 0 1013.6 1.1 51
2017-10-28 22:00:00 22.8 10 Norte 22 Norte 0 1013.5 1 57
2017-10-28 21:00:00 23.3 14 Norte 24 Norte 0 1013 0.7 66
2017-10-28 20:00:00 23.9 15 Norte 22 Norte 0 1012.5 0.1 63
2017-10-28 19:00:00 26.3 11 Norte 17 Nordeste 0 1012.5 -0.1 40
2017-10-28 18:00:00 27.1 10 Norte 17 Nordeste 0 1012.3 -0.6 29
2017-10-28 17:00:00 27.2 6 Nordeste 15 Nordeste 0 1012.4 -1.3 27
2017-10-28 16:00:00 26.8 6 Nordeste 15 Nordeste 0 1012.6 -2 33
2017-10-28 15:00:00 27.3 9 Este 15 Este 0 1012.9 -2.1 32
2017-10-28 14:00:00 27.5 5 Nordeste 17 Nordeste 0 1013.7 -1.3 32
2017-10-28 13:00:00 27.6 6 Este 15 Este 0 1014.6 -0.1 31
2017-10-28 12:00:00 27.6 9 Nordeste 21 Este 0 1015 0.7 29
2017-10-28 11:00:00 26.5 4 Norte 13 Sudeste 0 1015 0.9 33
2017-10-28 10:00:00 25.9 3 Este 9 Norte 0 1014.7 0.9 33
2017-10-28 09:00:00 24.6 4 Oeste 8 Oeste 0 1014.3 0.7 32
2017-10-28 08:00:00 23.4 10 Oeste 15 Oeste 0 1014.1 0.6 31
2017-10-28 07:00:00 23 6 Norte 11 Noroeste 0 1013.8 0.4 32
2017-10-28 06:00:00 24.1 6 Noroeste 13 Noroeste 0 1013.6 -0.3 30
2017-10-28 05:00:00 24.8 7 Noroeste 13 Norte 0 1013.5 -0.7 29
2017-10-28 04:00:00 24.9 4 Norte 17 Oeste 0 1013.4 -0.9 29
2017-10-28 03:00:00 23.2 9 Oeste 13 Oeste 0 1013.9 -0.8 30
2017-10-28 02:00:00 23.8 10 Noroeste 15 Noroeste 0 1014.2 -0.6 35
2017-10-28 01:00:00 23.7 9 Norte 15 Norte 0 1014.3 -0.1 29
2017-10-28 00:00:00 25.2 10 Norte 18 Norte 0 1014.7 0.8 27
2017-10-27 23:00:00 25.2 11 Norte 17 Norte 0 1014.8 1 27
2017-10-27 22:00:00 25.8 13 Noroeste 21 Norte 0 1014.4 0.6 26
2017-10-27 21:00:00 25.7 9 Norte 15 Norte 0 1013.9 0.3 28
2017-10-27 20:00:00 26.4 8 Norte 13 Noroeste 0 1013.8 0.2 26
2017-10-27 19:00:00 27.3 8 Noroeste 17 Nordeste 0 1013.8 0 27
2017-10-27 18:00:00 28 8 Norte 15 Nordeste 0 1013.6 -0.8 26
2017-10-27 17:00:00 28 7 Norte 17 Este 0 1013.6 -1.3 27
2017-10-27 16:00:00 28 5 Sudeste 17 Nordeste 0 1013.8 -1.9 28
2017-10-27 15:00:00 27.2 5 Nordeste 21 Nordeste 0 1014.4 -1.8 33
2017-10-27 14:00:00 27.6 4 Nordeste 18 Nordeste 0 1014.9 -1.2 34
2017-10-27 13:00:00 26.6 6 Nordeste 21 Este 0 1015.7 0.1 39
2017-10-27 12:00:00 26.7 8 Sudeste 18 Este 0 1016.2 1.5 39
2017-10-27 11:00:00 26.4 6 Nordeste 21 Este 0 1016.1 2.1 40
2017-10-27 10:00:00 25.6 5 Norte 17 Noroeste 0 1015.6 2 42
2017-10-27 09:00:00 24.5 6 Sur 21 Noroeste 0 1014.7 1.6 45
2017-10-27 08:00:00 23.3 4 Noroeste 13 Noroeste 0 1014 1 50
2017-10-27 07:00:00 24.1 4 Este 21 Sudeste 0 1013.6 0.5 51
2017-10-27 06:00:00 24.6 9 Sudeste 21 Sudeste 0 1013.1 -0.1 50
2017-10-27 05:00:00 24.4 6 Sudoeste 17 Sudoeste 0 1013 -0.4 55
2017-10-27 04:00:00 24.8 5 Sudeste 22 Sudeste 0 1013.1 -0.5 53
2017-10-27 03:00:00 25.1 3 Oeste 15 Norte 0 1013.2 -0.5 45
2017-10-27 02:00:00 26.3 7 Norte 17 Nordeste 0 1013.4 -0.7 31
2017-10-27 01:00:00 26.7 7 Norte 17 Noroeste 0 1013.6 0.1 27
2017-10-27 00:00:00 25.1 9 Noroeste 15 Norte 0 1013.7 0.7 30
2017-10-26 23:00:00 24.1 10 Noroeste 21 Norte 0 1014.1 1.4 56
2017-10-26 22:00:00 27 3 Norte 11 Noroeste 0 1013.5 1 25
2017-10-26 21:00:00 27.1 5 Noroeste 17 Este 0 1013 0.8 28
2017-10-26 20:00:00 26.5 4 Noroeste 11 Este 0 1012.7 0.8 49
2017-10-26 19:00:00 26.3 2 Oeste 9 Este 0 1012.5 0.7 49
2017-10-26 18:00:00 30.8 7 Sudeste 13 Sudeste 0 1012.2 0 27
2017-10-26 17:00:00 29.4 6 Sudeste 18 Sudeste 0 1011.9 -0.8 32
2017-10-26 16:00:00 29.7 13 Sudeste 18 Sudeste 0 1011.8 -1.4 33
2017-10-26 15:00:00 28.9 14 Sudeste 24 Sudeste 0 1012.2 -1.3 32
2017-10-26 14:00:00 29.3 9 Sur 24 Sudeste 0 1012.7 -0.6 32
2017-10-26 13:00:00 29.1 12 Sudeste 21 Sudeste 0 1013.2 0.2 40
2017-10-26 12:00:00 29.1 14 Sudeste 18 Sudeste 0 1013.5 1.1 41
2017-10-26 11:00:00 27.7 13 Sudeste 18 Sudeste 0 1013.3 1.5 51
2017-10-26 10:00:00 26 9 Sur 13 Sur 0 1013 1.5 51
2017-10-26 09:00:00 24.6 6 Sudoeste 9 Sur 0 1012.4 1.1 43
2017-10-26 08:00:00 24.1 8 Oeste 17 Oeste 0 1011.8 0.9 34
2017-10-26 07:00:00 23.2 10 Oeste 15 Oeste 0 1011.5 1 42
2017-10-26 06:00:00 22.9 9 Oeste 17 Oeste 0 1011.3 0.4 58
2017-10-26 05:00:00 21.9 5 Oeste 9 Oeste 0 1010.9 -0.3 48
2017-10-26 04:00:00 22 6 Oeste 11 Oeste 0 1010.5 -1.1 43
2017-10-26 03:00:00 22.2 8 Oeste 9 Oeste 0 1010.9 -0.7 42
2017-10-26 02:00:00 22 6 Oeste -- -- 0 1011.2 -0.6 46
2017-10-26 01:00:00 22.6 6 Noroeste 9 Noroeste 0 1011.6 -0.2 49
2017-10-26 00:00:00 22.6 7 Noroeste 9 Noroeste 0 1011.6 0.1 55